createdAt,value
2017-10-28T00:02:17.943Z,100262.17
2017-10-28T00:04:45.366Z,100265.16
2017-10-28T00:07:12.804Z,100260.72
2017-10-28T00:09:40.193Z,100254.27
2017-10-28T00:12:07.751Z,100265.49
2017-10-28T00:14:35.157Z,100254.33
2017-10-28T00:17:02.584Z,100252.78
2017-10-28T00:19:29.991Z,100243.30
2017-10-28T00:21:57.420Z,100249.76
2017-10-28T00:24:24.913Z,100258.15
2017-10-28T00:26:52.349Z,100262.23
2017-10-28T00:29:19.757Z,100249.53
2017-10-28T00:34:56.844Z,100254.84
2017-10-28T00:37:24.247Z,100260.33
2017-10-28T00:39:51.692Z,100256.47
2017-10-28T00:42:19.105Z,100252.65
2017-10-28T00:44:46.564Z,100244.35
2017-10-28T00:47:13.961Z,100249.25
2017-10-28T00:49:41.376Z,100245.58
2017-10-28T00:52:08.775Z,100253.23
2017-10-28T00:54:36.211Z,100233.24
2017-10-28T00:57:03.611Z,100259.62
2017-10-28T00:59:31.045Z,100256.95
2017-10-28T01:01:58.451Z,100256.90
2017-10-28T01:04:25.890Z,100262.66
2017-10-28T01:06:53.297Z,100263.88
2017-10-28T01:09:20.714Z,100254.14
2017-10-28T01:11:48.140Z,100249.78
2017-10-28T01:14:15.525Z,100237.00
2017-10-28T01:16:42.961Z,100235.05
2017-10-28T01:19:10.371Z,100229.38
2017-10-28T01:21:37.806Z,100227.89
2017-10-28T01:24:05.195Z,100235.69
2017-10-28T01:26:32.640Z,100230.23
2017-10-28T01:29:00.039Z,100224.89
2017-10-28T01:31:27.472Z,100219.90
2017-10-28T01:33:54.927Z,100227.98
2017-10-28T01:36:22.343Z,100215.73
2017-10-28T01:38:49.802Z,100214.38
2017-10-28T01:41:19.511Z,100214.77
2017-10-28T01:43:47.215Z,100206.43
2017-10-28T01:46:14.653Z,100201.80
2017-10-28T01:48:42.065Z,100199.40
2017-10-28T01:51:09.513Z,100203.94
2017-10-28T01:53:36.952Z,100197.90
2017-10-28T01:56:04.347Z,100191.59
2017-10-28T01:58:31.777Z,100186.88
2017-10-28T02:00:59.175Z,100187.74
2017-10-28T02:03:26.602Z,100182.02
2017-10-28T02:05:54.716Z,100186.49
2017-10-28T02:08:22.152Z,100183.80
2017-10-28T02:10:49.588Z,100178.67
2017-10-28T02:13:17.012Z,100174.28
2017-10-28T02:15:44.443Z,100168.25
2017-10-28T02:18:11.870Z,100163.87
2017-10-28T02:20:39.285Z,100155.14
2017-10-28T02:23:06.685Z,100147.35
2017-10-28T02:25:34.128Z,100146.32
2017-10-28T02:28:01.540Z,100148.00
2017-10-28T02:30:28.955Z,100146.23
2017-10-28T02:32:56.385Z,100144.17
2017-10-28T02:35:23.768Z,100134.77
2017-10-28T02:37:51.220Z,100128.58
2017-10-28T02:40:18.611Z,100140.94
2017-10-28T02:42:46.056Z,100149.57
2017-10-28T02:45:13.458Z,100146.34
2017-10-28T02:47:40.877Z,100149.26
2017-10-28T02:50:08.290Z,100140.94
2017-10-28T02:52:35.726Z,100131.65
2017-10-28T02:55:03.125Z,100131.72
2017-10-28T02:57:30.520Z,100122.80
2017-10-28T02:59:57.955Z,100123.02
2017-10-28T03:02:25.344Z,100124.76
2017-10-28T03:04:52.776Z,100122.85
2017-10-28T03:07:20.167Z,100112.19
2017-10-28T03:09:47.589Z,100107.59
2017-10-28T03:12:15.003Z,100107.19
2017-10-28T03:14:42.417Z,100097.78
2017-10-28T03:17:09.835Z,100105.62
2017-10-28T03:19:37.244Z,100103.49
2017-10-28T03:22:04.693Z,100100.22
2017-10-28T03:24:32.089Z,100104.03
2017-10-28T03:26:59.521Z,100093.33
2017-10-28T03:29:26.909Z,100090.39
2017-10-28T03:31:54.347Z,100092.38
2017-10-28T03:34:21.740Z,100085.46
2017-10-28T03:36:49.157Z,100084.69
2017-10-28T03:39:16.583Z,100084.55
2017-10-28T03:41:44.042Z,100083.21
2017-10-28T03:44:11.427Z,100075.42
2017-10-28T03:46:38.839Z,100074.45
2017-10-28T03:49:06.258Z,100069.80
2017-10-28T03:51:33.693Z,100066.67
2017-10-28T03:54:01.119Z,100057.94
2017-10-28T03:56:28.506Z,100056.48
2017-10-28T03:58:55.923Z,100050.67
2017-10-28T04:01:23.312Z,100056.05
2017-10-28T04:03:50.744Z,100060.83
2017-10-28T04:06:18.149Z,100025.25
2017-10-28T04:08:45.648Z,100059.58
2017-10-28T04:11:13.046Z,100052.07
2017-10-28T04:13:40.460Z,100051.98
2017-10-28T04:16:07.885Z,100059.36
2017-10-28T04:18:35.280Z,100056.70
2017-10-28T04:21:02.713Z,100052.00
2017-10-28T04:23:30.116Z,100049.13
2017-10-28T04:25:57.575Z,100045.13
2017-10-28T04:28:24.967Z,100041.95
2017-10-28T04:30:52.383Z,100037.85
2017-10-28T04:33:19.799Z,100034.59
2017-10-28T04:35:47.222Z,100035.20
2017-10-28T04:38:14.611Z,100031.47
2017-10-28T04:40:42.004Z,100029.47
2017-10-28T04:43:09.439Z,100025.34
2017-10-28T04:45:36.824Z,100030.78
2017-10-28T04:48:04.252Z,100027.28
2017-10-28T04:50:31.663Z,100019.56
2017-10-28T04:52:59.120Z,100014.53
2017-10-28T04:55:26.519Z,100009.28
2017-10-28T04:57:53.963Z,100010.81
2017-10-28T05:00:21.365Z,100001.05
2017-10-28T05:02:48.909Z,99996.82
2017-10-28T05:05:16.325Z,100005.01
2017-10-28T05:07:43.714Z,99987.53
2017-10-28T05:10:11.133Z,99983.78
2017-10-28T05:12:38.541Z,99983.90
2017-10-28T05:15:05.959Z,99987.79
2017-10-28T05:17:33.353Z,99992.52
2017-10-28T05:20:00.775Z,100000.67
2017-10-28T05:22:28.178Z,100005.08
2017-10-28T05:24:55.627Z,100002.05
2017-10-28T05:27:23.020Z,99990.84
2017-10-28T05:29:50.448Z,99990.23
2017-10-28T05:32:17.842Z,99988.94
2017-10-28T05:34:45.365Z,99977.22
2017-10-28T05:37:12.760Z,99983.59
2017-10-28T05:39:40.161Z,99981.98
2017-10-28T05:42:07.584Z,99976.00
2017-10-28T05:44:34.986Z,99968.91
2017-10-28T05:47:02.436Z,99963.13
2017-10-28T05:49:29.849Z,99960.89
2017-10-28T05:51:57.251Z,99955.14
2017-10-28T05:54:24.647Z,99954.11
2017-10-28T05:56:52.062Z,99949.39
2017-10-28T05:59:19.476Z,99944.36
2017-10-28T06:01:46.883Z,99924.87
2017-10-28T06:04:14.278Z,99917.87
2017-10-28T06:06:41.728Z,99925.22
2017-10-28T06:09:09.184Z,99935.17
2017-10-28T06:11:36.579Z,99933.11
2017-10-28T06:14:04.052Z,99930.58
2017-10-28T06:16:31.460Z,99924.20
2017-10-28T06:18:58.904Z,99928.87
2017-10-28T06:21:26.304Z,99926.30
2017-10-28T06:23:53.753Z,99933.44
2017-10-28T06:26:21.136Z,99928.69
2017-10-28T06:28:48.575Z,99924.16
2017-10-28T06:31:15.985Z,99927.42
2017-10-28T06:33:43.410Z,99924.25
2017-10-28T06:36:10.802Z,99916.61
2017-10-28T06:38:38.253Z,99911.71
2017-10-28T06:41:05.772Z,99910.70
2017-10-28T06:43:33.173Z,99913.72
2017-10-28T06:46:00.599Z,99917.04
2017-10-28T06:48:27.999Z,99916.39
2017-10-28T06:50:55.435Z,99928.06
2017-10-28T06:53:22.831Z,99926.83
2017-10-28T06:55:50.247Z,99925.92
2017-10-28T06:58:17.640Z,99925.30
2017-10-28T07:00:45.066Z,99934.65
2017-10-28T07:03:12.461Z,99933.28
2017-10-28T07:05:39.898Z,99944.14
2017-10-28T07:08:07.284Z,99934.52
2017-10-28T07:10:34.715Z,99951.53
2017-10-28T07:13:02.135Z,99943.32
2017-10-28T07:15:29.529Z,99934.16
2017-10-28T07:17:56.968Z,99940.39
2017-10-28T07:20:24.382Z,99924.06
2017-10-28T07:22:51.822Z,99928.66
2017-10-28T07:25:19.216Z,99920.75
2017-10-28T07:27:46.655Z,99743.23
2017-10-28T07:30:14.039Z,99906.58
2017-10-28T07:32:41.472Z,99911.02
2017-10-28T07:35:08.868Z,99918.42
2017-10-28T07:37:36.406Z,99932.98
2017-10-28T07:40:03.795Z,99917.35
2017-10-28T07:42:31.220Z,99905.70
2017-10-28T07:44:59.027Z,99914.92
2017-10-28T07:47:26.424Z,99909.25
2017-10-28T07:49:53.839Z,99910.33
2017-10-28T07:52:21.253Z,99907.83
2017-10-28T07:54:48.699Z,99914.92
2017-10-28T07:57:16.109Z,99925.13
2017-10-28T07:59:43.526Z,99936.95
2017-10-28T08:02:10.967Z,99933.64
2017-10-28T08:04:38.919Z,99923.77
2017-10-28T08:07:06.358Z,99917.48
2017-10-28T08:09:33.746Z,99924.20
2017-10-28T08:12:01.200Z,99916.69
2017-10-28T08:14:28.636Z,99901.67
2017-10-28T08:16:56.069Z,99888.58
2017-10-28T08:19:23.513Z,99871.42
2017-10-28T08:21:50.964Z,99856.87
2017-10-28T08:24:18.422Z,99849.30
2017-10-28T08:26:45.846Z,99864.27
2017-10-28T08:29:13.292Z,99862.84
2017-10-28T08:31:40.705Z,99874.85
2017-10-28T08:34:08.150Z,99878.52
2017-10-28T08:36:35.594Z,99829.30
2017-10-28T08:39:03.031Z,99839.73
2017-10-28T08:41:30.452Z,99847.19
2017-10-28T08:43:57.903Z,99842.67
2017-10-28T08:46:25.292Z,99866.39
2017-10-28T08:48:52.783Z,99858.22
2017-10-28T08:51:20.216Z,99865.78
2017-10-28T08:53:47.667Z,99874.19
2017-10-28T08:56:15.057Z,99884.55
2017-10-28T08:58:42.506Z,99885.36
2017-10-28T09:01:09.948Z,99877.59
2017-10-28T09:03:37.370Z,99880.22
2017-10-28T09:06:04.827Z,99878.59
2017-10-28T09:08:32.247Z,99883.72
2017-10-28T09:10:59.690Z,99873.57
2017-10-28T09:13:27.092Z,99874.80
2017-10-28T09:15:54.523Z,99870.15
2017-10-28T09:18:21.928Z,99891.17
2017-10-28T09:20:49.387Z,99891.55
2017-10-28T09:23:16.836Z,99892.18
2017-10-28T09:25:44.234Z,99897.30
2017-10-28T09:28:11.659Z,99903.23
2017-10-28T09:30:39.919Z,99881.28
2017-10-28T09:33:07.344Z,99880.77
2017-10-28T09:35:34.781Z,99890.08
2017-10-28T09:38:02.290Z,99874.16
2017-10-28T09:40:29.733Z,99910.23
2017-10-28T09:42:57.156Z,99914.25
2017-10-28T09:45:24.596Z,99903.42
2017-10-28T09:47:52.060Z,99896.98
2017-10-28T09:50:19.513Z,99881.39
2017-10-28T09:52:47.697Z,99869.36
2017-10-28T09:55:15.183Z,99847.22
2017-10-28T09:57:42.597Z,99830.17
2017-10-28T10:00:10.062Z,99825.60
2017-10-28T10:02:37.502Z,99821.33
2017-10-28T10:05:04.927Z,99813.89
2017-10-28T10:07:32.325Z,99799.70
2017-10-28T10:09:59.752Z,99799.00
2017-10-28T10:12:27.247Z,99806.10
2017-10-28T10:14:54.724Z,99797.39
2017-10-28T10:17:22.169Z,99820.60
2017-10-28T10:19:49.613Z,99844.22
2017-10-28T10:22:17.028Z,99850.20
2017-10-28T10:24:44.518Z,99839.02
2017-10-28T10:27:11.908Z,99842.78
2017-10-28T10:29:39.354Z,99833.77
2017-10-28T10:32:06.756Z,99820.41
2017-10-28T10:34:34.156Z,99792.45
2017-10-28T10:37:01.595Z,99794.49
2017-10-28T10:39:28.983Z,99800.17
2017-10-28T10:41:56.424Z,99790.74
2017-10-28T10:44:23.828Z,99801.39
2017-10-28T10:46:51.281Z,99800.34
2017-10-28T10:49:18.728Z,99783.62
2017-10-28T10:51:46.152Z,99792.06
2017-10-28T10:54:14.239Z,99761.38
2017-10-28T10:56:42.236Z,99770.90
2017-10-28T10:59:09.679Z,99749.21
2017-10-28T11:01:37.140Z,99745.62
2017-10-28T11:04:04.652Z,99730.95
2017-10-28T11:06:32.069Z,99716.42
2017-10-28T11:08:59.493Z,99689.88
2017-10-28T11:11:26.945Z,99669.25
2017-10-28T11:13:54.376Z,99670.72
2017-10-28T11:16:21.785Z,99726.91
2017-10-28T11:18:49.236Z,99740.47
2017-10-28T11:21:16.652Z,99740.92
2017-10-28T11:23:44.102Z,99747.07
2017-10-28T11:26:11.552Z,99754.09
2017-10-28T11:28:38.960Z,99743.53
2017-10-28T11:31:06.656Z,99749.10
2017-10-28T11:33:34.052Z,99732.79
2017-10-28T11:36:01.507Z,99709.13
2017-10-28T11:38:28.909Z,99698.80
2017-10-28T11:40:56.343Z,99690.87
2017-10-28T11:43:23.760Z,99654.78
2017-10-28T11:45:51.193Z,99675.13
2017-10-28T11:48:18.615Z,99695.47
2017-10-28T11:50:46.053Z,99670.34
2017-10-28T11:53:13.486Z,99668.07
2017-10-28T11:55:40.941Z,99682.56
2017-10-28T11:58:08.501Z,99663.81
2017-10-28T12:00:35.911Z,99678.67
2017-10-28T12:03:03.340Z,99572.92
2017-10-28T12:05:30.742Z,99655.67
2017-10-28T12:07:58.879Z,99651.95
2017-10-28T12:10:26.521Z,99667.53
2017-10-28T12:12:53.955Z,99675.55
2017-10-28T12:15:21.410Z,99647.47
2017-10-28T12:17:48.942Z,99647.39
2017-10-28T12:20:16.375Z,99656.89
2017-10-28T12:22:43.805Z,99648.92
2017-10-28T12:25:11.286Z,99629.03
2017-10-28T12:27:38.697Z,99619.23
2017-10-28T12:30:06.125Z,99613.41
2017-10-28T12:32:33.547Z,99614.84
2017-10-28T12:35:00.933Z,99605.20
2017-10-28T12:37:28.369Z,99620.28
2017-10-28T12:39:55.800Z,99607.41
2017-10-28T12:42:23.224Z,99604.54
2017-10-28T12:44:50.615Z,99599.41
2017-10-28T12:47:18.055Z,99615.59
2017-10-28T12:49:45.477Z,99594.86
2017-10-28T12:52:12.936Z,99606.19
2017-10-28T12:54:40.326Z,99532.88
2017-10-28T12:57:07.766Z,99586.05
2017-10-28T12:59:35.197Z,99597.09
2017-10-28T13:02:02.635Z,99588.55
2017-10-28T13:04:30.056Z,99577.72
2017-10-28T13:06:57.480Z,99568.21
2017-10-28T13:09:24.892Z,99560.25
2017-10-28T13:11:52.331Z,99562.30
2017-10-28T13:14:19.785Z,99551.11
2017-10-28T13:16:47.248Z,99550.04
2017-10-28T13:19:14.644Z,99558.66
2017-10-28T13:21:42.039Z,99534.48
2017-10-28T13:24:09.476Z,99533.73
2017-10-28T13:26:36.888Z,99532.48
2017-10-28T13:29:04.424Z,99527.11
2017-10-28T13:31:31.824Z,99506.88
2017-10-28T13:33:59.266Z,99521.04
2017-10-28T13:36:26.665Z,99529.37
2017-10-28T13:38:54.119Z,99519.18
2017-10-28T13:41:22.396Z,99514.09
2017-10-28T13:43:49.848Z,99504.30
2017-10-28T13:46:17.253Z,99507.41
2017-10-28T13:48:44.679Z,99503.87
2017-10-28T13:51:12.145Z,99499.94
2017-10-28T13:53:39.681Z,99494.56
2017-10-28T13:56:07.120Z,99494.36
2017-10-28T13:58:34.665Z,99500.53
2017-10-28T14:01:02.069Z,99476.13
2017-10-28T14:03:29.503Z,99449.74
2017-10-28T14:05:56.932Z,99463.37
2017-10-28T14:08:24.406Z,99449.74
2017-10-28T14:10:51.831Z,99458.50
2017-10-28T14:13:19.320Z,99450.61
2017-10-28T14:15:46.768Z,99449.86
2017-10-28T14:18:14.242Z,99459.39
2017-10-28T14:20:41.661Z,99470.48
2017-10-28T14:23:09.401Z,99480.27
2017-10-28T14:25:36.839Z,99466.27
2017-10-28T14:28:04.253Z,99466.70
2017-10-28T14:30:31.680Z,99458.15
2017-10-28T14:32:59.119Z,99453.92
2017-10-28T14:35:26.525Z,99450.53
2017-10-28T14:37:53.939Z,99443.93
2017-10-28T14:40:21.368Z,99437.66
2017-10-28T14:42:48.825Z,99431.50
2017-10-28T14:45:16.213Z,99422.86
2017-10-28T14:47:43.631Z,99421.44
2017-10-28T14:50:11.039Z,99418.81
2017-10-28T14:52:38.460Z,99421.73
2017-10-28T14:55:05.918Z,99402.59
2017-10-28T14:57:33.347Z,99411.33
2017-10-28T15:00:00.773Z,99419.64
2017-10-28T15:02:28.179Z,99420.68
2017-10-28T15:04:55.619Z,99411.23
2017-10-28T15:07:23.047Z,99395.70
2017-10-28T15:09:50.515Z,99386.67
2017-10-28T15:12:17.917Z,99392.50
2017-10-28T15:14:45.353Z,99401.28
2017-10-28T15:17:12.778Z,99402.84
2017-10-28T15:19:40.204Z,99401.14
2017-10-28T15:22:07.651Z,99393.30
2017-10-28T15:24:39.293Z,99400.77
2017-10-28T15:27:06.709Z,99404.09
2017-10-28T15:29:34.116Z,99398.37
2017-10-28T15:32:01.589Z,99397.48
2017-10-28T15:34:28.992Z,99398.66
2017-10-28T15:36:56.428Z,99380.93
2017-10-28T15:39:23.813Z,99383.80
2017-10-28T15:41:52.255Z,99359.36
2017-10-28T15:44:19.663Z,99362.21
2017-10-28T15:46:47.082Z,99358.53
2017-10-28T15:49:14.471Z,99353.55
2017-10-28T15:51:41.918Z,99357.28
2017-10-28T15:54:09.381Z,99354.81
2017-10-28T15:56:36.776Z,99355.25
2017-10-28T15:59:04.204Z,99360.42
2017-10-28T16:01:31.616Z,99359.52
2017-10-28T16:03:59.054Z,99369.43
2017-10-28T16:06:26.462Z,99371.87
2017-10-28T16:08:53.922Z,99372.00
2017-10-28T16:11:21.362Z,99371.53
2017-10-28T16:13:48.780Z,99370.08
2017-10-28T16:16:16.191Z,99373.96
2017-10-28T16:18:43.727Z,99369.86
2017-10-28T16:21:11.187Z,99355.09
2017-10-28T16:23:38.666Z,99356.13
2017-10-28T16:26:06.068Z,99359.09
2017-10-28T16:28:33.540Z,99348.77
2017-10-28T16:31:01.028Z,99356.60
2017-10-28T16:33:28.472Z,99360.70
2017-10-28T16:35:55.951Z,99360.56
2017-10-28T16:38:23.344Z,99359.36
2017-10-28T16:40:50.782Z,99351.17
2017-10-28T16:43:18.194Z,99375.73
2017-10-28T16:45:45.655Z,99350.77
2017-10-28T16:48:13.079Z,99369.61
2017-10-28T16:50:40.495Z,99357.38
2017-10-28T16:53:08.159Z,99345.31
2017-10-28T16:55:35.581Z,99334.75
2017-10-28T16:58:03.014Z,99314.80
2017-10-28T17:00:30.408Z,99322.84
2017-10-28T17:02:57.847Z,99321.53
2017-10-28T17:05:25.224Z,99322.08
2017-10-28T17:07:52.683Z,99341.12
2017-10-28T17:10:20.076Z,99326.57
2017-10-28T17:12:47.504Z,99330.37
2017-10-28T17:15:14.934Z,99327.23
2017-10-28T17:17:42.346Z,99335.87
2017-10-28T17:20:10.471Z,99329.39
2017-10-28T17:22:37.876Z,99330.88
2017-10-28T17:25:05.299Z,99329.58
2017-10-28T17:27:32.742Z,99323.52
2017-10-28T17:30:00.208Z,99313.06
2017-10-28T17:32:27.657Z,99321.25
2017-10-28T17:34:55.105Z,99312.60
2017-10-28T17:37:22.512Z,99307.84
2017-10-28T17:39:49.926Z,99311.38
2017-10-28T17:42:17.391Z,99299.61
2017-10-28T17:44:44.808Z,99302.66
2017-10-28T17:47:12.247Z,99315.58
2017-10-28T17:49:39.661Z,99294.33
2017-10-28T17:52:07.124Z,99300.14
2017-10-28T17:54:34.508Z,99299.44
2017-10-28T17:57:01.943Z,99291.52
2017-10-28T17:59:29.335Z,99282.02
2017-10-28T18:01:56.761Z,99289.69
2017-10-28T18:04:24.164Z,99280.95
2017-10-28T18:06:51.583Z,99273.47
2017-10-28T18:09:19.008Z,99268.63
2017-10-28T18:11:46.396Z,99262.48
2017-10-28T18:14:13.839Z,99256.53
2017-10-28T18:16:41.964Z,99252.48
2017-10-28T18:19:09.392Z,99250.75
2017-10-28T18:21:36.795Z,99246.41
2017-10-28T18:24:04.259Z,99232.81
2017-10-28T18:26:31.659Z,99236.33
2017-10-28T18:28:59.166Z,99235.95
2017-10-28T18:31:26.557Z,99232.92
2017-10-28T18:33:53.949Z,99229.50
2017-10-28T18:36:21.366Z,99217.05
2017-10-28T18:38:48.765Z,99211.23
2017-10-28T18:41:16.188Z,99196.80
2017-10-28T18:43:43.639Z,99200.25
2017-10-28T18:46:11.057Z,99204.21
2017-10-28T18:48:38.456Z,99181.88
2017-10-28T18:51:05.908Z,99190.84
2017-10-28T18:53:33.313Z,99202.50
2017-10-28T18:56:00.752Z,99203.17
2017-10-28T18:58:28.141Z,99197.07
2017-10-28T19:00:55.571Z,99187.83
2017-10-28T19:03:22.967Z,99182.66
2017-10-28T19:05:50.396Z,99183.97
2017-10-28T19:08:17.838Z,99188.59
2017-10-28T19:10:45.264Z,99182.03
2017-10-28T19:13:12.681Z,99184.52
2017-10-28T19:15:40.067Z,99187.45
2017-10-28T19:18:07.496Z,99182.70
2017-10-28T19:20:34.923Z,99182.95
2017-10-28T19:23:02.332Z,99181.44
2017-10-28T19:25:29.760Z,99192.47
2017-10-28T19:27:57.155Z,99197.90
2017-10-28T19:30:24.593Z,99198.94
2017-10-28T19:32:51.992Z,99188.48
2017-10-28T19:35:19.448Z,99183.59
2017-10-28T19:37:46.851Z,99182.14
2017-10-28T19:40:14.264Z,99196.42
2017-10-28T19:42:41.665Z,99187.47
2017-10-28T19:45:09.085Z,99180.72
2017-10-28T19:47:36.493Z,99187.59
2017-10-28T19:50:03.913Z,99164.17
2017-10-28T19:52:31.316Z,99173.84
2017-10-28T19:54:58.730Z,99164.83
2017-10-28T19:57:26.156Z,99164.17
2017-10-28T19:59:53.559Z,99160.33
2017-10-28T20:02:21.012Z,99167.88
2017-10-28T20:04:48.423Z,99165.91
2017-10-28T20:07:15.876Z,99162.20
2017-10-28T20:09:43.267Z,99169.61
2017-10-28T20:12:10.696Z,99148.41
2017-10-28T20:14:38.137Z,99149.34
2017-10-28T20:17:05.528Z,99136.78
2017-10-28T20:19:32.923Z,99151.28
2017-10-28T20:22:00.385Z,99135.22
2017-10-28T20:24:27.777Z,99143.77
2017-10-28T20:26:55.207Z,99147.21
2017-10-28T20:29:22.960Z,99154.33
2017-10-28T20:31:50.371Z,99147.19
2017-10-28T20:34:17.807Z,99137.61
2017-10-28T20:36:45.202Z,99132.45
2017-10-28T20:39:12.650Z,99139.48
2017-10-28T20:41:40.036Z,99130.73
2017-10-28T20:44:07.547Z,99132.59
2017-10-28T20:46:34.951Z,99118.30
2017-10-28T20:49:02.409Z,99104.38
2017-10-28T20:51:29.804Z,99097.31
2017-10-28T20:53:57.231Z,99086.22
2017-10-28T20:56:24.662Z,99079.98
2017-10-28T20:58:52.064Z,99078.25
2017-10-28T21:01:19.526Z,99074.70
2017-10-28T21:03:46.959Z,99073.91
2017-10-28T21:06:14.411Z,99080.20
2017-10-28T21:08:41.829Z,99077.95
2017-10-28T21:11:09.269Z,99077.67
2017-10-28T21:13:36.720Z,99070.42
2017-10-28T21:16:04.165Z,99056.28
2017-10-28T21:18:32.271Z,99071.36
2017-10-28T21:20:59.708Z,99053.50
2017-10-28T21:23:27.187Z,99048.63
2017-10-28T21:25:54.588Z,99049.15
2017-10-28T21:28:22.024Z,99060.08
2017-10-28T21:30:49.436Z,99038.42
2017-10-28T21:33:16.885Z,99039.20
2017-10-28T21:35:44.327Z,99021.12
2017-10-28T21:38:11.726Z,99022.98
2017-10-28T21:40:39.140Z,99000.02
2017-10-28T21:43:06.548Z,99002.25
2017-10-28T21:45:33.998Z,98995.23
2017-10-28T21:48:01.408Z,98976.64
2017-10-28T21:50:28.852Z,98968.56
2017-10-28T21:52:56.282Z,98973.30
2017-10-28T21:55:23.702Z,98973.14
2017-10-28T21:57:51.108Z,98969.16
2017-10-28T22:00:18.584Z,98965.36
2017-10-28T22:02:45.976Z,98947.28
2017-10-28T22:05:13.378Z,98952.52
2017-10-28T22:07:40.825Z,98943.81
2017-10-28T22:10:08.219Z,98932.43
2017-10-28T22:12:35.661Z,98942.47
2017-10-28T22:15:03.096Z,98931.67
2017-10-28T22:17:30.530Z,98927.45
2017-10-28T22:19:57.949Z,98934.20
2017-10-28T22:22:25.382Z,98927.18
2017-10-28T22:24:52.827Z,98924.55
2017-10-28T22:27:20.244Z,98912.94
2017-10-28T22:29:47.661Z,98923.62
2017-10-28T22:32:15.064Z,98931.04
2017-10-28T22:34:42.479Z,98917.53
2017-10-28T22:37:09.936Z,98939.33
2017-10-28T22:39:37.319Z,98925.63
2017-10-28T22:42:04.714Z,98931.84
2017-10-28T22:44:32.164Z,98918.75
2017-10-28T22:46:59.575Z,98916.13
2017-10-28T22:49:27.016Z,98907.55
2017-10-28T22:51:54.492Z,98907.93
2017-10-28T22:54:21.877Z,98899.62
2017-10-28T22:56:49.314Z,98891.30
2017-10-28T22:59:16.719Z,98885.23
2017-10-28T23:01:44.146Z,98877.69
2017-10-28T23:04:11.560Z,98868.31
2017-10-28T23:06:39.001Z,98859.73
2017-10-28T23:09:06.462Z,98875.97
2017-10-28T23:11:33.890Z,98868.20
2017-10-28T23:14:01.380Z,98855.89
2017-10-28T23:16:28.812Z,98849.56
2017-10-28T23:18:56.221Z,98852.22
2017-10-28T23:21:23.650Z,98851.27
2017-10-28T23:23:51.052Z,98851.69
2017-10-28T23:26:18.492Z,98843.48
2017-10-28T23:28:45.888Z,98807.84
2017-10-28T23:31:13.299Z,98807.31
2017-10-28T23:33:40.688Z,98797.92
2017-10-28T23:36:08.110Z,98791.84
2017-10-28T23:38:35.545Z,98786.45
2017-10-28T23:41:02.941Z,98775.08
2017-10-28T23:43:30.320Z,98763.33
2017-10-28T23:45:57.752Z,98758.56
2017-10-28T23:48:25.150Z,98754.38
2017-10-28T23:50:53.489Z,98749.61
2017-10-28T23:53:20.882Z,98749.98
2017-10-28T23:55:48.303Z,98727.97
2017-10-28T23:58:15.684Z,98731.13
